createdAt,value
2023-04-12T00:00:34.819Z,197.96
2023-04-12T00:01:34.937Z,197.26
2023-04-12T00:02:35.226Z,196.06
2023-04-12T00:03:35.356Z,194.54
2023-04-12T00:04:35.477Z,197.90
2023-04-12T00:05:35.417Z,196.43
2023-04-12T00:06:35.555Z,196.99
2023-04-12T00:07:35.636Z,195.69
2023-04-12T00:08:35.744Z,195.14
2023-04-12T00:09:35.841Z,192.42
2023-04-12T00:10:35.955Z,193.70
2023-04-12T00:11:36.069Z,195.29
2023-04-12T00:12:36.200Z,194.27
2023-04-12T00:13:36.244Z,195.66
2023-04-12T00:14:36.286Z,195.31
2023-04-12T00:15:36.411Z,195.17
2023-04-12T00:16:36.440Z,193.11
2023-04-12T00:17:36.535Z,189.95
2023-04-12T00:18:36.621Z,190.35
2023-04-12T00:19:36.686Z,194.23
2023-04-12T00:20:36.742Z,194.40
2023-04-12T00:21:36.814Z,197.39
2023-04-12T00:22:36.884Z,197.94
2023-04-12T00:23:36.948Z,197.93
2023-04-12T00:24:37.002Z,195.67
2023-04-12T00:25:37.078Z,194.90
2023-04-12T00:26:37.143Z,195.63
2023-04-12T00:27:37.267Z,195.64
2023-04-12T00:28:37.385Z,198.29
2023-04-12T00:29:37.541Z,196.77
2023-04-12T00:30:37.608Z,197.80
2023-04-12T00:31:37.821Z,200.57
2023-04-12T00:32:37.831Z,202.10
2023-04-12T00:33:37.949Z,200.93
2023-04-12T00:34:38.070Z,198.03
2023-04-12T00:35:38.296Z,199.34
2023-04-12T00:36:38.268Z,199.58
2023-04-12T00:37:38.367Z,199.39
2023-04-12T00:38:38.449Z,199.30
2023-04-12T00:39:38.549Z,201.59
2023-04-12T00:40:38.714Z,201.69
2023-04-12T00:41:38.796Z,202.21
2023-04-12T00:42:38.884Z,201.49
2023-04-12T00:43:39.010Z,201.87
2023-04-12T00:44:39.112Z,201.29
2023-04-12T00:45:39.231Z,204.59
2023-04-12T00:46:39.379Z,207.50
2023-04-12T00:47:39.547Z,209.49
2023-04-12T00:48:39.594Z,207.94
2023-04-12T00:49:39.684Z,207.70
2023-04-12T00:50:39.811Z,209.26
2023-04-12T00:51:39.919Z,208.27
2023-04-12T00:52:40.004Z,206.92
2023-04-12T00:53:40.104Z,207.27
2023-04-12T00:54:40.206Z,208.35
2023-04-12T00:55:40.322Z,207.92
2023-04-12T00:56:40.412Z,205.55
2023-04-12T00:57:40.574Z,202.55
2023-04-12T00:58:40.579Z,200.49
2023-04-12T00:59:40.690Z,200.47
2023-04-12T01:00:40.852Z,202.65
2023-04-12T01:01:40.940Z,205.04
2023-04-12T01:02:41.119Z,208.64
2023-04-12T01:03:41.075Z,208.80
2023-04-12T01:04:41.076Z,207.95
2023-04-12T01:05:41.125Z,207.59
2023-04-12T01:06:41.282Z,207.09
2023-04-12T01:07:41.479Z,206.49
2023-04-12T01:08:41.605Z,209.32
2023-04-12T01:09:41.706Z,212.59
2023-04-12T01:10:41.814Z,214.49
2023-04-12T01:11:41.893Z,214.76
2023-04-12T01:12:41.962Z,215.78
2023-04-12T01:13:42.102Z,217.89
2023-04-12T01:14:42.164Z,218.10
2023-04-12T01:15:42.249Z,215.91
2023-04-12T01:16:42.404Z,215.36
2023-04-12T01:17:42.409Z,216.17
2023-04-12T01:18:42.459Z,215.01
2023-04-12T01:19:42.508Z,214.75
2023-04-12T01:20:42.568Z,215.19
2023-04-12T01:21:42.637Z,216.69
2023-04-12T01:22:42.699Z,217.76
2023-04-12T01:23:42.751Z,217.29
2023-04-12T01:24:42.837Z,214.94
2023-04-12T01:25:42.948Z,213.00
2023-04-12T01:26:42.911Z,210.22
2023-04-12T01:27:42.976Z,208.62
2023-04-12T01:28:43.040Z,209.71
2023-04-12T01:29:43.110Z,212.19
2023-04-12T01:30:43.241Z,215.92
2023-04-12T01:31:43.267Z,216.47
2023-04-12T01:32:43.320Z,215.64
2023-04-12T01:33:43.344Z,217.38
2023-04-12T01:34:43.392Z,218.51
2023-04-12T01:35:43.510Z,218.39
2023-04-12T01:36:43.512Z,219.10
2023-04-12T01:37:43.569Z,221.96
2023-04-12T01:38:43.634Z,223.01
2023-04-12T01:39:43.706Z,224.45
2023-04-12T01:40:43.763Z,226.32
2023-04-12T01:41:43.833Z,231.06
2023-04-12T01:42:43.900Z,235.57
2023-04-12T01:43:43.961Z,237.83
2023-04-12T01:44:44.033Z,239.49
2023-04-12T01:45:44.171Z,241.80
2023-04-12T01:46:44.143Z,239.10
2023-04-12T01:47:44.231Z,234.09
2023-04-12T01:48:44.257Z,230.63
2023-04-12T01:49:44.393Z,231.79
2023-04-12T01:50:44.399Z,231.66
2023-04-12T01:51:44.441Z,231.74
2023-04-12T01:52:44.491Z,233.79
2023-04-12T01:53:44.573Z,237.94
2023-04-12T01:54:44.625Z,240.99
2023-04-12T01:55:44.677Z,243.33
2023-04-12T01:56:44.745Z,244.68
2023-04-12T01:57:44.790Z,242.97
2023-04-12T01:58:44.853Z,243.36
2023-04-12T01:59:44.920Z,244.39
2023-04-12T02:00:45.061Z,244.45
2023-04-12T02:01:45.146Z,244.09
2023-04-12T02:02:45.248Z,242.89
2023-04-12T02:03:45.406Z,240.81
2023-04-12T02:04:45.320Z,238.32
2023-04-12T02:05:45.450Z,238.15
2023-04-12T02:06:45.553Z,241.24
2023-04-12T02:07:45.656Z,243.27
2023-04-12T02:08:45.751Z,244.20
2023-04-12T02:09:45.898Z,245.13
2023-04-12T02:10:45.952Z,248.63
2023-04-12T02:11:46.018Z,250.13
2023-04-12T02:12:46.116Z,250.73
2023-04-12T02:13:46.199Z,250.00
2023-04-12T02:14:46.277Z,250.23
2023-04-12T02:15:46.344Z,250.00
2023-04-12T02:16:46.495Z,249.99
2023-04-12T02:17:46.513Z,250.28
2023-04-12T02:18:46.611Z,248.62
2023-04-12T02:19:46.710Z,249.96
2023-04-12T02:20:46.796Z,249.80
2023-04-12T02:21:46.869Z,249.96
2023-04-12T02:22:46.938Z,249.90
2023-04-12T02:23:47.044Z,250.00
2023-04-12T02:24:47.061Z,247.51
2023-04-12T02:25:47.141Z,245.86
2023-04-12T02:26:47.212Z,246.39
2023-04-12T02:27:47.271Z,245.96
2023-04-12T02:28:47.344Z,245.03
2023-04-12T02:29:47.414Z,245.07
2023-04-12T02:30:47.528Z,245.18
2023-04-12T02:31:47.542Z,245.89
2023-04-12T02:32:47.686Z,245.38
2023-04-12T02:33:47.684Z,245.84
2023-04-12T02:34:47.771Z,247.68
2023-04-12T02:35:47.857Z,249.66
2023-04-12T02:36:47.886Z,249.43
2023-04-12T02:37:47.950Z,247.34
2023-04-12T02:38:48.750Z,243.14
2023-04-12T02:39:48.088Z,242.41
2023-04-12T02:40:48.170Z,242.86
2023-04-12T02:41:48.228Z,240.98
2023-04-12T02:42:48.298Z,240.92
2023-04-12T02:43:48.377Z,241.35
2023-04-12T02:44:48.446Z,241.35
2023-04-12T02:45:48.570Z,241.19
2023-04-12T02:46:48.604Z,241.72
2023-04-12T02:47:48.717Z,243.88
2023-04-12T02:48:48.775Z,243.98
2023-04-12T02:49:48.857Z,243.98
2023-04-12T02:50:48.975Z,241.18
2023-04-12T02:51:49.051Z,240.31
2023-04-12T02:52:49.145Z,240.30
2023-04-12T02:53:49.255Z,240.54
2023-04-12T02:54:49.336Z,244.56
2023-04-12T02:55:49.438Z,250.69
2023-04-12T02:56:49.536Z,250.90
2023-04-12T02:57:49.627Z,251.10
2023-04-12T02:58:49.736Z,248.68
2023-04-12T02:59:49.826Z,245.14
2023-04-12T03:00:49.925Z,245.13
2023-04-12T03:01:50.076Z,244.98
2023-04-12T03:02:50.257Z,247.53
2023-04-12T03:03:50.290Z,250.16
2023-04-12T03:04:50.313Z,250.00
2023-04-12T03:05:50.411Z,248.83
2023-04-12T03:06:50.509Z,248.05
2023-04-12T03:07:50.613Z,245.88
2023-04-12T03:08:50.709Z,242.04
2023-04-12T03:09:50.810Z,242.64
2023-04-12T03:10:50.904Z,243.54
2023-04-12T03:11:51.026Z,247.88
2023-04-12T03:12:51.104Z,247.26
2023-04-12T03:13:51.206Z,245.57
2023-04-12T03:14:51.295Z,245.28
2023-04-12T03:15:51.434Z,246.58
2023-04-12T03:16:51.505Z,248.72
2023-04-12T03:17:51.672Z,248.02
2023-04-12T03:18:51.714Z,247.04
2023-04-12T03:19:51.794Z,245.52
2023-04-12T03:20:51.879Z,247.33
2023-04-12T03:21:51.976Z,250.04
2023-04-12T03:22:52.061Z,250.00
2023-04-12T03:23:52.158Z,249.93
2023-04-12T03:24:52.251Z,246.93
2023-04-12T03:25:52.348Z,244.70
2023-04-12T03:26:52.439Z,244.46
2023-04-12T03:27:52.520Z,244.11
2023-04-12T03:28:52.609Z,242.46
2023-04-12T03:29:52.710Z,242.20
2023-04-12T03:30:52.851Z,241.75
2023-04-12T03:31:52.890Z,243.37
2023-04-12T03:32:53.079Z,243.14
2023-04-12T03:33:53.070Z,243.28
2023-04-12T03:34:53.170Z,244.47
2023-04-12T03:35:53.296Z,243.07
2023-04-12T03:36:53.403Z,241.62
2023-04-12T03:37:53.445Z,241.59
2023-04-12T03:38:53.562Z,242.67
2023-04-12T03:39:53.657Z,243.59
2023-04-12T03:40:53.758Z,244.42
2023-04-12T03:41:53.862Z,244.09
2023-04-12T03:42:53.958Z,243.81
2023-04-12T03:43:54.158Z,242.01
2023-04-12T03:44:54.172Z,240.63
2023-04-12T03:45:54.275Z,239.37
2023-04-12T03:46:54.454Z,242.65
2023-04-12T03:47:54.521Z,246.58
2023-04-12T03:48:54.559Z,249.34
2023-04-12T03:50:54.733Z,245.71
2023-04-12T03:51:54.800Z,246.94
2023-04-12T03:52:54.866Z,247.97
2023-04-12T03:53:55.105Z,245.51
2023-04-12T03:54:55.012Z,240.13
2023-04-12T03:55:55.079Z,236.52
2023-04-12T03:56:55.152Z,234.36
2023-04-12T03:57:55.230Z,230.88
2023-04-12T03:58:55.303Z,228.21
2023-04-12T03:59:55.395Z,223.18
2023-04-12T04:00:55.447Z,221.89
2023-04-12T04:01:55.536Z,218.41
2023-04-12T04:02:55.633Z,219.43
2023-04-12T04:03:56.232Z,222.48
2023-04-12T04:04:55.799Z,222.09
2023-04-12T04:05:55.835Z,224.19
2023-04-12T04:06:55.907Z,225.78
2023-04-12T04:07:55.983Z,225.07
2023-04-12T04:08:56.062Z,222.19
2023-04-12T04:09:56.148Z,215.19
2023-04-12T04:10:56.198Z,212.05
2023-04-12T04:11:56.278Z,212.97
2023-04-12T04:12:56.382Z,211.29
2023-04-12T04:13:56.626Z,209.27
2023-04-12T04:14:56.514Z,208.35
2023-04-12T04:15:56.636Z,210.50
2023-04-12T04:16:56.698Z,213.84
2023-04-12T04:17:56.806Z,217.52
2023-04-12T04:18:56.825Z,220.84
2023-04-12T04:19:56.908Z,223.64
2023-04-12T04:20:56.977Z,222.35
2023-04-12T04:21:57.070Z,222.21
2023-04-12T04:22:57.141Z,223.70
2023-04-12T04:23:57.418Z,225.97
2023-04-12T04:24:57.278Z,228.36
2023-04-12T04:25:57.367Z,225.05
2023-04-12T04:26:57.430Z,224.80
2023-04-12T04:27:57.503Z,223.87
2023-04-12T04:28:57.622Z,223.74
2023-04-12T04:29:57.667Z,222.33
2023-04-12T04:30:57.743Z,224.27
2023-04-12T04:31:57.850Z,223.25
2023-04-12T04:32:57.897Z,219.19
2023-04-12T04:33:58.081Z,210.85
2023-04-12T04:34:58.031Z,205.39
2023-04-12T04:35:58.183Z,204.87
2023-04-12T04:36:58.179Z,201.34
2023-04-12T04:37:58.282Z,195.72
2023-04-12T04:38:58.342Z,194.66
2023-04-12T04:39:58.422Z,196.17
2023-04-12T04:40:58.510Z,197.79
2023-04-12T04:41:58.588Z,201.32
2023-04-12T04:42:58.672Z,205.65
2023-04-12T04:43:58.839Z,207.19
2023-04-12T04:44:58.821Z,206.89
2023-04-12T04:45:59.018Z,206.25
2023-04-12T04:46:58.980Z,205.37
2023-04-12T04:47:59.087Z,206.39
2023-04-12T04:48:59.113Z,207.81
2023-04-12T04:49:59.190Z,208.95
2023-04-12T04:50:59.260Z,210.80
2023-04-12T04:51:59.330Z,213.59
2023-04-12T04:52:59.414Z,216.68
2023-04-12T04:53:59.492Z,218.63
2023-04-12T04:54:59.572Z,221.33
2023-04-12T04:55:59.697Z,225.10
2023-04-12T04:56:59.791Z,225.41
2023-04-12T04:58:00.160Z,230.06
2023-04-12T04:59:00.238Z,231.99
2023-04-12T05:00:00.195Z,228.71
2023-04-12T05:01:00.345Z,229.92
2023-04-12T05:02:00.537Z,230.28
2023-04-12T05:03:00.635Z,231.17
2023-04-12T05:04:00.841Z,233.00
2023-04-12T05:05:00.863Z,233.80
2023-04-12T05:06:00.983Z,233.86
2023-04-12T05:07:01.102Z,234.04
2023-04-12T05:08:01.206Z,235.43
2023-04-12T05:09:01.318Z,237.38
2023-04-12T05:10:01.461Z,240.62
2023-04-12T05:11:01.575Z,242.90
2023-04-12T05:12:01.689Z,244.72
2023-04-12T05:13:02.778Z,244.79
2023-04-12T05:14:01.952Z,244.38
2023-04-12T05:16:02.122Z,244.34
2023-04-12T05:17:02.197Z,242.06
2023-04-12T05:18:02.369Z,241.35
2023-04-12T05:19:02.339Z,242.08
2023-04-12T05:20:02.428Z,241.80
2023-04-12T05:21:03.294Z,239.51
2023-04-12T05:22:02.578Z,238.85
2023-04-12T05:23:02.653Z,239.40
2023-04-12T05:24:02.793Z,239.16
2023-04-12T05:25:02.814Z,238.76
2023-04-12T05:26:03.792Z,239.16
2023-04-12T05:27:03.139Z,238.42
2023-04-12T05:28:03.314Z,237.95
2023-04-12T05:29:03.444Z,238.80
2023-04-12T05:30:03.190Z,239.44
2023-04-12T05:31:03.850Z,240.31
2023-04-12T05:32:03.351Z,239.49
2023-04-12T05:33:03.429Z,238.35
2023-04-12T05:34:03.477Z,236.82
2023-04-12T05:35:03.593Z,236.58
2023-04-12T05:36:03.750Z,238.58
2023-04-12T05:37:03.723Z,240.91
2023-04-12T05:38:03.788Z,241.40
2023-04-12T05:39:03.850Z,252.18
2023-04-12T05:40:03.924Z,255.52
2023-04-12T05:41:04.013Z,249.88
2023-04-12T05:42:04.088Z,249.29
2023-04-12T05:43:04.157Z,249.68
2023-04-12T05:44:04.229Z,249.00
2023-04-12T05:45:04.463Z,246.26
2023-04-12T05:46:04.429Z,242.08
2023-04-12T05:47:04.486Z,240.30
2023-04-12T05:48:04.615Z,239.96
2023-04-12T05:49:04.636Z,241.23
2023-04-12T05:50:06.401Z,242.30
2023-04-12T05:51:04.795Z,243.01
2023-04-12T05:52:04.878Z,241.92
2023-04-12T05:53:04.971Z,242.51
2023-04-12T05:54:05.063Z,241.70
2023-04-12T05:55:05.227Z,241.28
2023-04-12T05:56:05.544Z,241.89
2023-04-12T05:57:05.681Z,242.00
2023-04-12T05:58:05.651Z,243.57
2023-04-12T05:59:05.786Z,245.48
2023-04-12T06:00:05.927Z,247.07
2023-04-12T06:01:06.084Z,248.36
2023-04-12T06:02:06.245Z,249.65
2023-04-12T06:03:06.568Z,250.00
2023-04-12T06:04:06.586Z,249.73
2023-04-12T06:05:06.695Z,249.01
2023-04-12T06:06:06.767Z,248.66
2023-04-12T06:07:06.911Z,248.44
2023-04-12T06:08:07.055Z,246.02
2023-04-12T06:09:07.205Z,243.89
2023-04-12T06:10:07.456Z,244.38
2023-04-12T06:11:07.488Z,245.87
2023-04-12T06:12:07.645Z,245.94
2023-04-12T06:13:07.787Z,246.48
2023-04-12T06:14:09.461Z,246.13
2023-04-12T06:15:08.008Z,245.71
2023-04-12T06:16:08.094Z,244.71
2023-04-12T06:17:08.179Z,243.84
2023-04-12T06:18:08.366Z,244.25
2023-04-12T06:19:08.349Z,242.76
2023-04-12T06:20:08.403Z,242.12
2023-04-12T06:21:08.482Z,242.70
2023-04-12T06:22:08.557Z,242.38
2023-04-12T06:23:08.636Z,242.99
2023-04-12T06:24:08.726Z,245.13
2023-04-12T06:25:08.992Z,244.95
2023-04-12T06:26:08.892Z,243.35
2023-04-12T06:27:08.969Z,242.14
2023-04-12T06:28:09.063Z,241.24
2023-04-12T06:29:09.132Z,240.64
2023-04-12T06:30:09.713Z,241.62
2023-04-12T06:31:10.776Z,241.43
2023-04-12T06:32:09.374Z,240.75
2023-04-12T06:33:09.458Z,239.89
2023-04-12T06:34:09.534Z,240.21
2023-04-12T06:35:09.611Z,237.73
2023-04-12T06:36:09.764Z,235.06
2023-04-12T06:37:09.777Z,235.80
2023-04-12T06:38:09.859Z,236.35
2023-04-12T06:39:12.347Z,236.15
2023-04-12T06:40:10.036Z,236.17
2023-04-12T06:41:10.190Z,235.76
2023-04-12T06:42:11.580Z,235.83
2023-04-12T06:43:11.309Z,234.54
2023-04-12T06:44:10.510Z,235.09
2023-04-12T06:45:10.649Z,236.17
2023-04-12T06:46:10.808Z,237.96
2023-04-12T06:47:11.062Z,240.09
2023-04-12T06:48:11.088Z,242.82
2023-04-12T06:49:11.223Z,244.81
2023-04-12T06:50:11.340Z,245.51
2023-04-12T06:51:12.661Z,244.70
2023-04-12T06:52:11.657Z,250.78
2023-04-12T06:53:11.750Z,250.00
2023-04-12T06:54:13.803Z,246.45
2023-04-12T06:55:11.915Z,243.48
2023-04-12T06:56:11.993Z,244.31
2023-04-12T06:57:12.077Z,244.76
2023-04-12T06:58:12.166Z,243.76
2023-04-12T06:59:12.258Z,241.25
2023-04-12T07:00:12.335Z,238.34
2023-04-12T07:01:12.480Z,234.97
2023-04-12T07:02:12.564Z,232.17
2023-04-12T07:03:15.438Z,229.75
2023-04-12T07:04:13.756Z,228.88
2023-04-12T07:05:12.856Z,229.03
2023-04-12T07:06:24.444Z,228.59
2023-04-12T07:07:14.070Z,228.57
2023-04-12T07:08:13.377Z,228.57
2023-04-12T07:09:13.329Z,227.11
2023-04-12T07:10:13.302Z,226.37
2023-04-12T07:11:21.008Z,225.35
2023-04-12T07:12:14.465Z,224.80
2023-04-12T07:13:14.177Z,223.16
2023-04-12T07:14:13.607Z,221.50
2023-04-12T07:15:13.832Z,221.26
2023-04-12T07:16:13.782Z,219.59
2023-04-12T07:17:13.850Z,216.87
2023-04-12T07:18:13.924Z,212.62
2023-04-12T07:19:14.088Z,210.89
2023-04-12T07:20:14.120Z,206.03
2023-04-12T07:21:14.226Z,202.96
2023-04-12T07:22:14.446Z,202.49
2023-04-12T07:23:14.458Z,201.57
2023-04-12T07:24:14.623Z,201.81
2023-04-12T07:25:14.899Z,201.85
2023-04-12T07:26:14.910Z,204.02
2023-04-12T07:27:15.044Z,206.36
2023-04-12T07:28:15.196Z,208.82
2023-04-12T07:29:15.439Z,210.25
2023-04-12T07:30:15.479Z,209.71
2023-04-12T07:31:15.622Z,206.70
2023-04-12T07:32:15.766Z,204.84
2023-04-12T07:33:19.520Z,204.91
2023-04-12T07:34:16.229Z,204.93
2023-04-12T07:35:16.194Z,205.11
2023-04-12T07:36:16.328Z,204.97
2023-04-12T07:37:16.336Z,204.40
2023-04-12T07:38:17.080Z,202.95
2023-04-12T07:39:16.497Z,203.79
2023-04-12T07:40:16.569Z,206.68
2023-04-12T07:41:16.646Z,208.13
2023-04-12T07:42:16.736Z,207.99
2023-04-12T07:43:16.814Z,209.24
2023-04-12T07:44:16.898Z,211.46
2023-04-12T07:45:16.979Z,211.78
2023-04-12T07:46:17.064Z,220.83
2023-04-12T07:47:17.130Z,223.45
2023-04-12T07:48:17.232Z,223.65
2023-04-12T07:49:17.296Z,227.12
2023-04-12T07:50:17.380Z,228.15
2023-04-12T07:51:17.512Z,230.01
2023-04-12T07:52:17.561Z,236.40
2023-04-12T07:53:17.630Z,242.07
2023-04-12T07:54:17.715Z,247.98
2023-04-12T07:55:17.805Z,249.48
2023-04-12T07:56:17.954Z,248.12
2023-04-12T07:57:18.067Z,253.51
2023-04-12T07:58:18.211Z,250.32
2023-04-12T07:59:18.381Z,246.41
2023-04-12T08:00:18.520Z,242.70
2023-04-12T08:01:18.651Z,239.50
2023-04-12T08:02:18.873Z,234.23
2023-04-12T08:03:19.072Z,227.78
2023-04-12T08:04:19.204Z,227.64
2023-04-12T08:05:19.252Z,229.10
2023-04-12T08:06:19.370Z,228.58
2023-04-12T08:07:19.548Z,230.19
2023-04-12T08:08:20.402Z,232.81
2023-04-12T08:09:19.801Z,228.26
2023-04-12T08:10:19.932Z,224.74
2023-04-12T08:11:20.062Z,221.94
2023-04-12T08:12:20.213Z,218.23
2023-04-12T08:13:20.336Z,215.71
2023-04-12T08:14:21.233Z,213.54
2023-04-12T08:15:20.596Z,213.36
2023-04-12T08:16:20.769Z,220.20
2023-04-12T08:17:20.987Z,223.00
2023-04-12T08:18:21.035Z,223.52
2023-04-12T08:19:21.165Z,224.28
2023-04-12T08:20:21.326Z,223.64
2023-04-12T08:21:21.434Z,222.94
2023-04-12T08:22:21.583Z,223.69
2023-04-12T08:23:21.738Z,228.15
2023-04-12T08:24:22.094Z,233.20
2023-04-12T08:25:22.024Z,237.47
2023-04-12T08:26:22.165Z,242.64
2023-04-12T08:27:22.829Z,247.65
2023-04-12T08:28:22.429Z,247.69
2023-04-12T08:29:22.557Z,248.13
2023-04-12T08:30:22.653Z,249.19
2023-04-12T08:31:22.888Z,250.01
2023-04-12T08:32:23.826Z,248.55
2023-04-12T08:33:23.182Z,247.36
2023-04-12T08:34:23.195Z,245.43
2023-04-12T08:35:23.415Z,241.22
2023-04-12T08:36:23.496Z,240.69
2023-04-12T08:37:24.633Z,240.83
2023-04-12T08:38:37.324Z,241.45
2023-04-12T08:39:24.766Z,240.91
2023-04-12T08:40:23.846Z,241.91
2023-04-12T08:41:23.948Z,243.71
2023-04-12T08:42:24.043Z,246.93
2023-04-12T08:43:24.093Z,249.33
2023-04-12T08:44:24.179Z,248.28
2023-04-12T08:45:24.262Z,245.18
2023-04-12T08:46:25.350Z,244.25
2023-04-12T08:47:24.472Z,244.32
2023-04-12T08:48:24.561Z,243.75
2023-04-12T08:49:24.580Z,244.02
2023-04-12T08:50:24.653Z,243.22
2023-04-12T08:51:24.746Z,238.91
2023-04-12T08:52:24.874Z,237.90
2023-04-12T08:53:25.194Z,236.03
2023-04-12T08:54:25.102Z,239.51
2023-04-12T08:55:25.209Z,242.67
2023-04-12T08:56:25.343Z,241.08
2023-04-12T08:57:25.409Z,240.64
2023-04-12T08:58:25.527Z,234.10
2023-04-12T08:59:25.629Z,224.14
2023-04-12T09:00:25.792Z,220.87
2023-04-12T09:01:25.907Z,218.30
2023-04-12T09:02:27.063Z,220.70
2023-04-12T09:03:26.277Z,222.09
2023-04-12T09:04:26.356Z,221.83
2023-04-12T09:05:26.451Z,218.96
2023-04-12T09:06:26.545Z,217.85
2023-04-12T09:07:26.675Z,218.64
2023-04-12T09:08:26.785Z,218.50
2023-04-12T09:09:26.895Z,218.17
2023-04-12T09:10:26.996Z,217.54
2023-04-12T09:11:27.127Z,217.01
2023-04-12T09:12:27.254Z,216.43
2023-04-12T09:13:27.297Z,223.62
2023-04-12T09:14:28.326Z,230.61
2023-04-12T09:15:27.472Z,236.16
2023-04-12T09:16:27.560Z,239.03
2023-04-12T09:17:27.692Z,244.74
2023-04-12T09:18:27.738Z,247.44
2023-04-12T09:19:27.825Z,250.45
2023-04-12T09:20:27.938Z,250.11
2023-04-12T09:21:28.055Z,245.77
2023-04-12T09:22:28.181Z,240.41
2023-04-12T09:23:28.282Z,241.43
2023-04-12T09:24:28.434Z,247.04
2023-04-12T09:25:28.495Z,241.88
2023-04-12T09:26:28.580Z,244.77
2023-04-12T09:27:28.680Z,239.97
2023-04-12T09:28:28.802Z,236.42
2023-04-12T09:29:28.914Z,241.05
2023-04-12T09:30:29.016Z,242.03
2023-04-12T09:31:29.134Z,243.83
2023-04-12T09:32:29.264Z,246.56
2023-04-12T09:33:29.312Z,246.12
2023-04-12T09:34:29.435Z,245.51
2023-04-12T09:35:29.551Z,245.07
2023-04-12T09:36:29.721Z,245.28
2023-04-12T09:37:29.837Z,246.98
2023-04-12T09:38:29.984Z,246.42
2023-04-12T09:39:30.090Z,245.13
2023-04-12T09:40:30.216Z,245.72
2023-04-12T09:41:30.316Z,243.14
2023-04-12T09:42:34.079Z,243.24
2023-04-12T09:43:30.501Z,240.63
2023-04-12T09:44:30.572Z,237.09
2023-04-12T09:45:30.636Z,235.02
2023-04-12T09:46:30.716Z,232.31
2023-04-12T09:47:30.778Z,229.51
2023-04-12T09:48:30.838Z,229.24
2023-04-12T09:49:30.889Z,229.18
2023-04-12T09:50:30.968Z,229.97
2023-04-12T09:51:31.015Z,228.33
2023-04-12T09:52:32.407Z,231.99
2023-04-12T09:53:31.257Z,237.40
2023-04-12T09:54:31.752Z,239.00
2023-04-12T09:55:31.282Z,238.58
2023-04-12T09:56:31.365Z,236.77
2023-04-12T09:57:31.396Z,236.10
2023-04-12T09:58:31.757Z,234.74
2023-04-12T09:59:31.515Z,232.16
2023-04-12T10:00:31.590Z,231.49
2023-04-12T10:01:32.655Z,231.49
2023-04-12T10:02:31.856Z,231.64
2023-04-12T10:03:31.895Z,232.23
2023-04-12T10:04:31.842Z,234.54
2023-04-12T10:05:31.887Z,224.78
2023-04-12T10:06:31.937Z,215.55
2023-04-12T10:07:31.934Z,212.84
2023-04-12T10:08:32.031Z,212.38
2023-04-12T10:09:32.033Z,210.93
2023-04-12T10:10:32.155Z,207.89
2023-04-12T10:11:32.250Z,201.42
2023-04-12T10:12:32.847Z,196.12
2023-04-12T10:13:32.486Z,195.52
2023-04-12T10:14:32.534Z,196.16
2023-04-12T10:15:32.634Z,199.24
2023-04-12T10:16:32.769Z,202.76
2023-04-12T10:17:33.075Z,203.12
2023-04-12T10:18:32.921Z,202.44
2023-04-12T10:19:33.048Z,199.06
2023-04-12T10:20:33.089Z,197.17
2023-04-12T10:21:33.204Z,197.53
2023-04-12T10:22:33.275Z,196.76
2023-04-12T10:23:33.404Z,194.76
2023-04-12T10:24:33.498Z,193.06
2023-04-12T10:25:33.639Z,188.16
2023-04-12T10:26:33.703Z,185.17
2023-04-12T10:27:33.800Z,183.86
2023-04-12T10:28:33.902Z,179.27
2023-04-12T10:29:33.986Z,179.15
2023-04-12T10:30:34.099Z,177.49
2023-04-12T10:31:34.230Z,177.41
2023-04-12T10:32:35.417Z,177.37
2023-04-12T10:33:34.334Z,180.86
2023-04-12T10:34:34.426Z,181.97
2023-04-12T10:35:34.541Z,182.74
2023-04-12T10:36:34.619Z,181.19
2023-04-12T10:37:34.697Z,181.30
2023-04-12T10:38:36.095Z,183.42
2023-04-12T10:39:34.887Z,183.54
2023-04-12T10:40:34.955Z,184.99
2023-04-12T10:41:35.061Z,184.88
2023-04-12T10:42:35.121Z,180.21
2023-04-12T10:43:35.204Z,180.95
2023-04-12T10:44:36.210Z,181.09
2023-04-12T10:45:35.291Z,182.18
2023-04-12T10:46:35.456Z,184.29
2023-04-12T10:47:35.327Z,186.96
2023-04-12T10:48:35.369Z,191.85
2023-04-12T10:49:35.360Z,194.02
2023-04-12T10:50:35.459Z,196.20
2023-04-12T10:51:35.429Z,195.90
2023-04-12T10:52:35.463Z,192.00
2023-04-12T10:53:35.486Z,187.95
2023-04-12T10:54:35.701Z,184.51
2023-04-12T10:55:35.602Z,183.66
2023-04-12T10:56:35.591Z,184.03
2023-04-12T10:57:35.659Z,183.33
2023-04-12T10:58:35.651Z,182.28
2023-04-12T10:59:46.860Z,183.12
2023-04-12T11:00:36.765Z,183.06
2023-04-12T11:01:38.335Z,181.96
2023-04-12T11:02:35.896Z,179.85
2023-04-12T11:03:35.872Z,177.14
2023-04-12T11:04:35.925Z,176.67
2023-04-12T11:05:35.847Z,175.41
2023-04-12T11:06:35.854Z,176.07
2023-04-12T11:07:36.373Z,177.89
2023-04-12T11:08:36.894Z,172.47
2023-04-12T11:09:36.944Z,169.60
2023-04-12T11:10:35.922Z,170.83
2023-04-12T11:11:35.915Z,171.69
2023-04-12T11:12:35.931Z,170.26
2023-04-12T11:13:36.012Z,173.09
2023-04-12T11:14:35.983Z,179.18
2023-04-12T11:15:36.174Z,183.79
2023-04-12T11:16:36.070Z,177.28
2023-04-12T11:17:37.799Z,177.00
2023-04-12T11:18:36.230Z,174.21
2023-04-12T11:19:36.134Z,173.96
2023-04-12T11:20:36.160Z,179.01
2023-04-12T11:21:36.191Z,181.30
2023-04-12T11:22:36.223Z,180.63
2023-04-12T11:23:36.248Z,184.52
2023-04-12T11:24:36.293Z,185.72
2023-04-12T11:25:36.281Z,179.94
2023-04-12T11:26:36.290Z,177.30
2023-04-12T11:27:36.298Z,181.93
2023-04-12T11:28:36.308Z,190.81
2023-04-12T11:29:36.345Z,195.87
2023-04-12T11:30:36.432Z,197.04
2023-04-12T11:31:36.781Z,196.82
2023-04-12T11:32:36.556Z,197.28
2023-04-12T11:33:36.587Z,200.30
2023-04-12T11:34:36.662Z,204.11
2023-04-12T11:35:36.730Z,200.74
2023-04-12T11:36:36.837Z,195.58
2023-04-12T11:37:36.862Z,195.30
2023-04-12T11:38:36.951Z,200.78
2023-04-12T11:39:37.003Z,202.23
2023-04-12T11:40:37.059Z,197.43
2023-04-12T11:41:37.274Z,192.33
2023-04-12T11:42:38.360Z,189.62
2023-04-12T11:43:37.537Z,189.73
2023-04-12T11:44:54.460Z,189.52
2023-04-12T11:45:38.615Z,186.33
2023-04-12T11:46:37.631Z,188.82
2023-04-12T11:47:37.758Z,189.87
2023-04-12T11:48:37.670Z,178.99
2023-04-12T11:49:37.693Z,175.73
2023-04-12T11:50:37.713Z,172.74
2023-04-12T11:51:37.729Z,178.87
2023-04-12T11:52:37.750Z,185.49
2023-04-12T11:53:37.761Z,186.79
2023-04-12T11:54:37.748Z,190.90
2023-04-12T11:55:37.792Z,188.31
2023-04-12T11:56:37.867Z,191.91
2023-04-12T11:57:37.938Z,202.21
2023-04-12T11:58:37.986Z,208.71
2023-04-12T11:59:38.061Z,206.65
2023-04-12T12:00:38.121Z,201.11
2023-04-12T12:01:38.189Z,195.72
2023-04-12T12:02:43.756Z,202.48
2023-04-12T12:03:39.366Z,189.85
2023-04-12T12:04:38.344Z,188.25
2023-04-12T12:05:38.308Z,197.07
2023-04-12T12:06:38.643Z,200.65
2023-04-12T12:07:38.228Z,196.45
2023-04-12T12:08:38.242Z,179.35
2023-04-12T12:09:38.230Z,173.55
2023-04-12T12:10:46.951Z,176.06
2023-04-12T12:11:39.248Z,176.29
2023-04-12T12:12:38.230Z,178.01
2023-04-12T12:13:38.397Z,179.38
2023-04-12T12:14:38.246Z,182.94
2023-04-12T12:15:38.254Z,191.44
2023-04-12T12:16:38.254Z,198.36
2023-04-12T12:17:38.288Z,203.82
2023-04-12T12:18:38.245Z,203.68
2023-04-12T12:19:38.237Z,196.50
2023-04-12T12:20:38.241Z,183.69
2023-04-12T12:21:38.264Z,175.12
2023-04-12T12:22:38.266Z,174.49
2023-04-12T12:23:38.271Z,175.35
2023-04-12T12:24:42.081Z,183.34
2023-04-12T12:25:39.291Z,172.75
2023-04-12T12:26:38.305Z,177.73
2023-04-12T12:27:38.322Z,178.18
2023-04-12T12:28:38.304Z,173.41
2023-04-12T12:29:38.285Z,173.76
2023-04-12T12:30:38.285Z,174.41
2023-04-12T12:31:39.262Z,172.93